createdAt,value
2017-06-22T00:00:17.601Z,41.07
2017-06-22T00:01:27.851Z,41.27
2017-06-22T00:02:38.104Z,41.36
2017-06-22T00:03:47.745Z,40.97
2017-06-22T00:04:58.004Z,41.07
2017-06-22T00:06:08.257Z,41.17
2017-06-22T00:07:18.202Z,41.17
2017-06-22T00:08:28.156Z,41.17
2017-06-22T00:09:38.125Z,40.97
2017-06-22T00:10:48.385Z,41.46
2017-06-22T00:11:58.647Z,41.36
2017-06-22T00:13:08.602Z,41.17
2017-06-22T00:14:18.858Z,41.17
2017-06-22T00:15:28.487Z,41.17
2017-06-22T00:16:38.117Z,41.36
2017-06-22T00:17:48.368Z,41.07
2017-06-22T00:18:58.619Z,41.36
2017-06-22T00:20:08.560Z,41.17
2017-06-22T00:21:18.820Z,41.46
2017-06-22T00:22:28.449Z,41.65
2017-06-22T00:23:38.100Z,41.55
2017-06-22T00:24:48.352Z,41.36
2017-06-22T00:25:58.630Z,42.13
2017-06-22T00:27:08.890Z,42.3
2017-06-22T00:28:19.152Z,42.21
2017-06-22T00:29:29.409Z,42.21
2017-06-22T00:30:39.039Z,42.3
2017-06-22T00:31:48.669Z,42.49
2017-06-22T00:32:58.917Z,42.69
2017-06-22T00:34:09.176Z,42.88
2017-06-22T00:35:19.432Z,42.69
2017-06-22T00:36:29.366Z,42.88
2017-06-22T00:37:39.617Z,42.69
2017-06-22T00:38:49.872Z,42.49
2017-06-22T00:39:59.817Z,42.69
2017-06-22T00:41:10.070Z,42.79
2017-06-22T00:42:20.325Z,42.69
2017-06-22T00:43:30.272Z,42.97
2017-06-22T00:44:40.525Z,42.79
2017-06-22T00:45:50.461Z,43.07
2017-06-22T00:47:00.718Z,42.59
2017-06-22T00:48:10.345Z,42.69
2017-06-22T00:49:20.590Z,42.59
2017-06-22T00:50:30.534Z,42.88
2017-06-22T00:51:40.478Z,42.69
2017-06-22T00:52:50.739Z,42.88
2017-06-22T00:54:01.003Z,42.69
2017-06-22T00:55:10.941Z,42.88
2017-06-22T00:56:21.208Z,42.97
2017-06-22T00:57:31.463Z,42.79
2017-06-22T00:58:41.720Z,42.69
2017-06-22T00:59:51.664Z,43.07
2017-06-22T01:01:01.298Z,42.88
2017-06-22T01:02:11.243Z,42.69
2017-06-22T01:03:21.496Z,42.69
2017-06-22T01:04:31.751Z,42.69
2017-06-22T01:05:42.015Z,42.88
2017-06-22T01:06:52.272Z,42.88
2017-06-22T01:08:02.209Z,42.49
2017-06-22T01:09:12.149Z,42.97
2017-06-22T01:10:22.091Z,42.79
2017-06-22T01:11:32.031Z,42.88
2017-06-22T01:12:41.654Z,42.88
2017-06-22T01:13:51.907Z,43.07
2017-06-22T01:15:01.847Z,43.34
2017-06-22T01:16:12.127Z,43.54
2017-06-22T01:17:22.071Z,43.34
2017-06-22T01:18:32.324Z,42.96
2017-06-22T01:19:42.584Z,43.15
2017-06-22T01:20:52.523Z,43.07
2017-06-22T01:22:02.806Z,43.07
2017-06-22T01:23:12.751Z,42.97
2017-06-22T01:24:22.698Z,43.24
2017-06-22T01:25:32.318Z,43.17
2017-06-22T01:26:41.946Z,43.46
2017-06-22T01:27:52.210Z,43.73
2017-06-22T01:29:02.152Z,43.34
2017-06-22T01:30:12.117Z,43.92
2017-06-22T01:31:22.373Z,43.92
2017-06-22T01:32:32.630Z,43.82
2017-06-22T01:33:42.893Z,43.63
2017-06-22T01:34:52.841Z,43.63
2017-06-22T01:36:02.801Z,43.92
2017-06-22T01:37:12.743Z,43.82
2017-06-22T01:38:22.681Z,44.31
2017-06-22T01:39:32.306Z,43.73
2017-06-22T01:40:42.555Z,43.63
2017-06-22T01:41:52.814Z,43.82
2017-06-22T01:43:03.072Z,43.44
2017-06-22T01:44:13.018Z,44.02
2017-06-22T01:45:23.271Z,44.02
2017-06-22T01:46:33.219Z,44.28
2017-06-22T01:47:42.846Z,44.67
2017-06-22T01:48:52.791Z,44.19
2017-06-22T01:50:02.733Z,44.38
2017-06-22T01:51:12.682Z,44.38
2017-06-22T01:52:22.312Z,44.4
2017-06-22T01:53:31.932Z,44.48
2017-06-22T01:54:42.186Z,44.02
2017-06-22T01:55:52.443Z,44.09
2017-06-22T01:57:02.703Z,44.28
2017-06-22T01:58:12.327Z,44.4
2017-06-22T01:59:22.269Z,44.49
2017-06-22T02:00:32.533Z,43.99
2017-06-22T02:01:42.795Z,44.31
2017-06-22T02:02:52.741Z,44.19
2017-06-22T02:04:02.373Z,43.99
2017-06-22T02:05:12.640Z,43.99
2017-06-22T02:06:22.583Z,44.76
2017-06-22T02:07:32.215Z,44.38
2017-06-22T02:08:42.470Z,44.19
2017-06-22T02:09:52.727Z,44.38
2017-06-22T02:11:02.988Z,44.19
2017-06-22T02:12:13.237Z,44.38
2017-06-22T02:13:22.863Z,43.99
2017-06-22T02:14:32.799Z,44.28
2017-06-22T02:15:43.065Z,44.21
2017-06-22T02:16:53.317Z,44.21
2017-06-22T02:18:03.261Z,44.31
2017-06-22T02:19:13.201Z,44.4
2017-06-22T02:20:23.462Z,44.21
2017-06-22T02:21:33.427Z,44.59
2017-06-22T02:22:42.742Z,44.19
2017-06-22T02:23:52.367Z,44.38
2017-06-22T02:25:02.301Z,44.76
2017-06-22T02:26:12.554Z,44.86
2017-06-22T02:27:22.494Z,44.86
2017-06-22T02:28:32.431Z,44.38
2017-06-22T02:29:41.753Z,44.11
2017-06-22T02:30:51.070Z,44.79
2017-06-22T02:32:01.323Z,44.02
2017-06-22T02:33:10.943Z,44.11
2017-06-22T02:34:20.892Z,44.59
2017-06-22T02:35:31.147Z,44.67
2017-06-22T02:36:41.088Z,44.86
2017-06-22T02:37:51.342Z,44.59
2017-06-22T02:39:01.603Z,44.96
2017-06-22T02:40:11.552Z,44.76
2017-06-22T02:41:21.500Z,44.96
2017-06-22T02:42:31.450Z,45.15
2017-06-22T02:43:41.396Z,45.92
2017-06-22T02:44:51.342Z,44.76
2017-06-22T02:46:00.968Z,45.92
2017-06-22T02:47:10.587Z,45.53
2017-06-22T02:48:20.532Z,44.57
2017-06-22T02:49:30.474Z,44.48
2017-06-22T02:50:40.722Z,44.96
2017-06-22T02:51:50.660Z,44.67
2017-06-22T02:53:00.292Z,44.76
2017-06-22T02:54:10.556Z,45.05
2017-06-22T02:55:20.809Z,45.15
2017-06-22T02:56:30.753Z,44.76
2017-06-22T02:57:41.010Z,45.05
2017-06-22T02:58:50.943Z,45.44
2017-06-22T03:00:00.889Z,44.38
2017-06-22T03:01:10.518Z,45.05
2017-06-22T03:02:20.151Z,44.86
2017-06-22T03:03:30.094Z,45.44
2017-06-22T03:04:40.032Z,45.44
2017-06-22T03:05:50.281Z,45.44
2017-06-22T03:07:00.534Z,44.86
2017-06-22T03:08:10.786Z,44.86
2017-06-22T03:09:20.744Z,44.48
2017-06-22T03:10:30.678Z,44.48
2017-06-22T03:11:40.925Z,44.96
2017-06-22T03:12:50.558Z,45.53
2017-06-22T03:14:00.820Z,45.53
2017-06-22T03:15:10.775Z,45.15
2017-06-22T03:16:20.709Z,46.01
2017-06-22T03:17:30.335Z,45.83
2017-06-22T03:18:40.593Z,44.96
2017-06-22T03:19:50.534Z,45.63
2017-06-22T03:21:00.785Z,44.76
2017-06-22T03:22:11.042Z,46.01
2017-06-22T03:23:21.301Z,45.92
2017-06-22T03:24:31.246Z,45.83
2017-06-22T03:25:41.177Z,46.11
2017-06-22T03:26:51.438Z,45.92
2017-06-22T03:28:01.688Z,46.01
2017-06-22T03:29:11.945Z,45.63
2017-06-22T03:30:21.881Z,46.01
2017-06-22T03:31:31.832Z,45.73
2017-06-22T03:32:42.082Z,45.63
2017-06-22T03:33:52.034Z,45.73
2017-06-22T03:35:01.979Z,45.73
2017-06-22T03:36:11.607Z,45.92
2017-06-22T03:37:21.867Z,45.15
2017-06-22T03:38:31.523Z,44.98
2017-06-22T03:39:41.784Z,44.49
2017-06-22T03:40:51.725Z,44.23
2017-06-22T03:42:01.664Z,43.75
2017-06-22T03:43:11.615Z,43.55
2017-06-22T03:44:21.553Z,43.27
2017-06-22T03:45:31.811Z,43.46
2017-06-22T03:46:41.750Z,43.1
2017-06-22T03:47:51.387Z,43.1
2017-06-22T03:49:01.332Z,43
2017-06-22T03:50:11.601Z,43.19
2017-06-22T03:51:21.850Z,43.19
2017-06-22T03:52:31.166Z,43
2017-06-22T03:53:41.426Z,43.19
2017-06-22T03:54:51.681Z,43.29
2017-06-22T03:56:01.624Z,43.19
2017-06-22T03:57:11.267Z,43.19
2017-06-22T03:58:21.537Z,43
2017-06-22T03:59:31.163Z,43.19
2017-06-22T04:00:41.423Z,43.19
2017-06-22T04:01:51.361Z,43.12
2017-06-22T04:03:01.610Z,43.12
2017-06-22T04:04:11.870Z,42.83
2017-06-22T04:05:21.494Z,42.73
2017-06-22T04:06:31.753Z,42.93
2017-06-22T04:07:42.009Z,42.93
2017-06-22T04:08:52.273Z,42.54
2017-06-22T04:10:02.526Z,43.02
2017-06-22T04:11:12.161Z,43.12
2017-06-22T04:12:22.096Z,42.54
2017-06-22T04:13:32.033Z,43.12
2017-06-22T04:14:42.272Z,43.12
2017-06-22T04:15:52.540Z,43.12
2017-06-22T04:17:02.484Z,42.93
2017-06-22T04:18:12.740Z,43.02
2017-06-22T04:19:22.991Z,42.93
2017-06-22T04:20:32.934Z,43.21
2017-06-22T04:21:42.572Z,43.12
2017-06-22T04:22:52.203Z,43.12
2017-06-22T04:24:02.459Z,43.31
2017-06-22T04:25:11.771Z,42.93
2017-06-22T04:26:22.034Z,43.31
2017-06-22T04:27:32.305Z,43.7
2017-06-22T04:28:42.261Z,43.21
2017-06-22T04:29:52.213Z,43.02
2017-06-22T04:31:02.469Z,43.6
2017-06-22T04:32:12.414Z,43.6
2017-06-22T04:33:22.359Z,43.6
2017-06-22T04:34:32.620Z,43.6
2017-06-22T04:35:42.566Z,43.6
2017-06-22T04:36:52.198Z,43.12
2017-06-22T04:38:02.142Z,42.93
2017-06-22T04:39:12.396Z,43.12
2017-06-22T04:40:22.346Z,43.21
2017-06-22T04:41:32.286Z,43.14
2017-06-22T04:42:42.229Z,43.14
2017-06-22T04:43:51.857Z,43.24
2017-06-22T04:45:02.109Z,42.93
2017-06-22T04:46:11.429Z,43.24
2017-06-22T04:47:21.691Z,43.21
2017-06-22T04:48:31.326Z,42.94
2017-06-22T04:49:41.270Z,42.85
2017-06-22T04:50:51.523Z,43.04
2017-06-22T04:52:01.770Z,42.94
2017-06-22T04:53:11.391Z,42.66
2017-06-22T04:54:21.331Z,42.66
2017-06-22T04:55:30.961Z,42.56
2017-06-22T04:56:40.924Z,42.75
2017-06-22T04:57:51.177Z,42.75
2017-06-22T04:59:01.432Z,42.75
2017-06-22T05:00:11.064Z,43.04
2017-06-22T05:01:21.324Z,43.04
2017-06-22T05:02:31.277Z,42.75
2017-06-22T05:03:41.561Z,43.04
2017-06-22T05:04:51.507Z,42.75
2017-06-22T05:06:01.455Z,42.75
2017-06-22T05:07:11.404Z,42.85
2017-06-22T05:08:21.663Z,42.85
2017-06-22T05:09:31.602Z,42.75
2017-06-22T05:10:41.228Z,43.04
2017-06-22T05:11:50.849Z,43.33
2017-06-22T05:13:00.484Z,42.75
2017-06-22T05:14:10.427Z,43.04
2017-06-22T05:15:20.377Z,42.85
2017-06-22T05:16:30.322Z,43.33
2017-06-22T05:17:40.578Z,43.14
2017-06-22T05:18:50.841Z,43.04
2017-06-22T05:20:00.801Z,42.75
2017-06-22T05:21:10.738Z,42.66
2017-06-22T05:22:20.994Z,42.85
2017-06-22T05:23:30.942Z,43.14
2017-06-22T05:24:40.881Z,43.24
2017-06-22T05:25:51.134Z,43.04
2017-06-22T05:27:00.758Z,43.24
2017-06-22T05:28:11.014Z,43.14
2017-06-22T05:29:20.959Z,43.14
2017-06-22T05:30:30.902Z,42.75
2017-06-22T05:31:40.841Z,43.33
2017-06-22T05:32:50.469Z,42.56
2017-06-22T05:34:00.729Z,42.94
2017-06-22T05:35:10.998Z,42.94
2017-06-22T05:36:21.253Z,42.75
2017-06-22T05:37:31.213Z,43.14
2017-06-22T05:38:41.157Z,43.14
2017-06-22T05:39:51.108Z,43.14
2017-06-22T05:41:01.045Z,43.04
2017-06-22T05:42:11.299Z,42.94
2017-06-22T05:43:20.618Z,42.85
2017-06-22T05:44:30.878Z,42.97
2017-06-22T05:45:41.141Z,42.75
2017-06-22T05:46:51.092Z,42.75
2017-06-22T05:48:01.039Z,43.33
2017-06-22T05:49:10.678Z,43.04
2017-06-22T05:50:20.308Z,43.24
2017-06-22T05:51:29.928Z,43.04
2017-06-22T05:52:39.556Z,43.74
2017-06-22T05:53:49.489Z,43.64
2017-06-22T05:54:59.435Z,43.54
2017-06-22T05:56:09.074Z,43.54
2017-06-22T05:57:19.317Z,43.64
2017-06-22T05:58:28.952Z,43.64
2017-06-22T05:59:39.205Z,43.64
2017-06-22T06:00:49.146Z,43.64
2017-06-22T06:01:59.398Z,43.45
2017-06-22T06:03:09.337Z,43.35
2017-06-22T06:04:18.648Z,43.35
2017-06-22T06:05:28.903Z,43.06
2017-06-22T06:06:38.847Z,43.64
2017-06-22T06:07:48.786Z,43.16
2017-06-22T06:08:58.720Z,43.45
2017-06-22T06:10:08.705Z,43.54
2017-06-22T06:11:18.656Z,43.54
2017-06-22T06:12:28.918Z,43.45
2017-06-22T06:13:38.863Z,43.54
2017-06-22T06:14:49.114Z,43.64
2017-06-22T06:15:59.366Z,43.54
2017-06-22T06:17:09.319Z,43.54
2017-06-22T06:18:18.954Z,43.64
2017-06-22T06:19:29.200Z,43.16
2017-06-22T06:20:39.144Z,43.64
2017-06-22T06:21:49.089Z,43.64
2017-06-22T06:22:59.033Z,43.84
2017-06-22T06:24:09.308Z,43.45
2017-06-22T06:25:19.251Z,43.64
2017-06-22T06:26:29.189Z,43.64
2017-06-22T06:27:38.819Z,43.54
2017-06-22T06:28:49.082Z,43.64
2017-06-22T06:29:59.340Z,43.64
2017-06-22T06:31:08.970Z,43.85
2017-06-22T06:32:18.915Z,43.54
2017-06-22T06:33:29.170Z,43.66
2017-06-22T06:34:39.125Z,43.76
2017-06-22T06:35:49.379Z,43.54
2017-06-22T06:36:59.632Z,43.66
2017-06-22T06:38:09.252Z,43.54
2017-06-22T06:39:18.872Z,43.93
2017-06-22T06:40:28.817Z,43.84
2017-06-22T06:41:38.769Z,43.95
2017-06-22T06:42:48.718Z,43.85
2017-06-22T06:43:58.971Z,43.95
2017-06-22T06:45:08.919Z,43.93
2017-06-22T06:46:18.864Z,43.85
2017-06-22T06:47:28.801Z,43.66
2017-06-22T06:48:38.742Z,43.66
2017-06-22T06:49:48.384Z,43.85
2017-06-22T06:50:58.642Z,44.15
2017-06-22T06:52:08.581Z,43.95
2017-06-22T06:53:18.517Z,43.76
2017-06-22T06:54:27.830Z,43.66
2017-06-22T06:55:37.783Z,43.76
2017-06-22T06:56:47.414Z,44.34
2017-06-22T06:57:57.685Z,44.34
2017-06-22T06:59:07.310Z,44.05
2017-06-22T07:00:17.552Z,43.93
2017-06-22T07:01:27.508Z,43.66
2017-06-22T07:02:36.817Z,43.76
2017-06-22T07:03:46.130Z,43.95
2017-06-22T07:04:56.408Z,44.43
2017-06-22T07:06:06.354Z,43.85
2017-06-22T07:07:16.302Z,44.43
2017-06-22T07:08:26.252Z,43.85
2017-06-22T07:09:36.201Z,43.66
2017-06-22T07:10:46.140Z,44.05
2017-06-22T07:11:56.086Z,44.05
2017-06-22T07:13:06.347Z,44.05
2017-06-22T07:14:15.368Z,43.95
2017-06-22T07:15:25.038Z,43.76
2017-06-22T07:16:34.986Z,43.85
2017-06-22T07:17:44.923Z,43.85
2017-06-22T07:18:54.872Z,43.76
2017-06-22T07:20:04.185Z,44.05
2017-06-22T07:21:14.447Z,43.95
2017-06-22T07:22:24.385Z,43.95
2017-06-22T07:23:34.338Z,44.24
2017-06-22T07:24:44.590Z,44.15
2017-06-22T07:25:54.220Z,44.05
2017-06-22T07:27:03.843Z,44.05
2017-06-22T07:28:12.845Z,44.24
2017-06-22T07:29:22.790Z,44.05
2017-06-22T07:30:32.739Z,44.05
2017-06-22T07:31:42.684Z,44.24
2017-06-22T07:32:52.957Z,44.15
2017-06-22T07:34:02.908Z,44.15
2017-06-22T07:35:12.846Z,43.95
2017-06-22T07:36:23.102Z,44.24
2017-06-22T07:37:32.738Z,44.24
2017-06-22T07:38:42.677Z,44.24
2017-06-22T07:39:52.307Z,44.43
2017-06-22T07:41:02.276Z,44.34
2017-06-22T07:42:12.220Z,44.24
2017-06-22T07:43:22.169Z,44.15
2017-06-22T07:44:32.437Z,44.05
2017-06-22T07:45:42.687Z,44.34
2017-06-22T07:46:52.637Z,44.24
2017-06-22T07:48:02.897Z,44.05
2017-06-22T07:49:12.844Z,44.15
2017-06-22T07:50:23.101Z,43.95
2017-06-22T07:51:33.368Z,44.43
2017-06-22T07:52:43.304Z,44.15
2017-06-22T07:53:52.309Z,44.15
2017-06-22T07:55:02.574Z,44.15
2017-06-22T07:56:12.520Z,44.15
2017-06-22T07:57:22.156Z,44.34
2017-06-22T07:58:32.102Z,44.53
2017-06-22T07:59:42.348Z,44.43
2017-06-22T08:00:51.661Z,44.34
2017-06-22T08:02:01.912Z,44.34
2017-06-22T08:03:11.546Z,44.24
2017-06-22T08:04:21.184Z,44.34
2017-06-22T08:05:30.807Z,44.34
2017-06-22T08:06:40.749Z,44.43
2017-06-22T08:07:50.686Z,44.43
2017-06-22T08:09:00.632Z,43.95
2017-06-22T08:10:10.891Z,44.15
2017-06-22T08:11:20.834Z,44.34
2017-06-22T08:12:31.090Z,43.95
2017-06-22T08:13:41.032Z,44.05
2017-06-22T08:14:50.978Z,44.63
2017-06-22T08:16:01.238Z,44.34
2017-06-22T08:17:11.494Z,43.85
2017-06-22T08:18:21.131Z,44.53
2017-06-22T08:19:30.440Z,43.85
2017-06-22T08:20:40.382Z,44.63
2017-06-22T08:21:50.322Z,44.63
2017-06-22T08:22:59.959Z,44.34
2017-06-22T08:24:09.896Z,44.34
2017-06-22T08:25:19.843Z,43.95
2017-06-22T08:26:30.106Z,44.43
2017-06-22T08:27:40.044Z,44.43
2017-06-22T08:28:49.983Z,44.53
2017-06-22T08:30:00.241Z,44.53
2017-06-22T08:31:09.561Z,44.63
2017-06-22T08:32:19.504Z,44.53
2017-06-22T08:33:29.765Z,44.43
2017-06-22T08:34:40.023Z,44.53
2017-06-22T08:35:49.667Z,44.43
2017-06-22T08:36:59.613Z,44.34
2017-06-22T08:38:09.258Z,44.43
2017-06-22T08:39:19.520Z,44.53
2017-06-22T08:40:29.448Z,44.43
2017-06-22T08:41:39.390Z,44.53
2017-06-22T08:42:49.331Z,44.53
2017-06-22T08:43:59.264Z,44.53
2017-06-22T08:45:09.206Z,44.34
2017-06-22T08:46:19.468Z,44.43
2017-06-22T08:47:29.102Z,44.53
2017-06-22T08:48:39.042Z,44.43
2017-06-22T08:49:48.668Z,44.43
2017-06-22T08:50:58.306Z,44.92
2017-06-22T08:52:08.571Z,44.53
2017-06-22T08:53:18.508Z,44.43
2017-06-22T08:54:28.459Z,44.73
2017-06-22T08:55:38.715Z,44.34
2017-06-22T08:56:48.962Z,44.24
2017-06-22T08:57:58.599Z,44.34
2017-06-22T08:59:08.862Z,44.43
2017-06-22T09:00:18.810Z,44.34
2017-06-22T09:01:28.439Z,44.24
2017-06-22T09:02:37.755Z,44.82
2017-06-22T09:03:47.703Z,44.34
2017-06-22T09:04:57.679Z,44.34
2017-06-22T09:06:07.311Z,44.63
2017-06-22T09:07:17.246Z,44.34
2017-06-22T09:08:26.244Z,44.73
2017-06-22T09:09:35.871Z,44.82
2017-06-22T09:10:46.135Z,44.24
2017-06-22T09:11:55.139Z,44.24
2017-06-22T09:13:05.094Z,44.24
2017-06-22T09:14:14.733Z,45.01
2017-06-22T09:15:24.045Z,45.01
2017-06-22T09:16:33.997Z,44.63
2017-06-22T09:17:43.316Z,44.34
2017-06-22T09:18:53.569Z,44.92
2017-06-22T09:20:03.825Z,44.24
2017-06-22T09:21:13.781Z,44.92
2017-06-22T09:22:24.036Z,44.53
2017-06-22T09:23:33.981Z,44.92
2017-06-22T09:24:43.922Z,44.34
2017-06-22T09:25:53.867Z,44.15
2017-06-22T09:27:04.124Z,44.34
2017-06-22T09:28:14.074Z,44.15
2017-06-22T09:29:23.697Z,44.24
2017-06-22T09:30:33.329Z,44.92
2017-06-22T09:31:43.584Z,44.24
2017-06-22T09:32:53.839Z,44.92
2017-06-22T09:34:03.796Z,44.34
2017-06-22T09:35:13.735Z,44.15
2017-06-22T09:36:23.364Z,44.82
2017-06-22T09:37:33.628Z,44.24
2017-06-22T09:38:43.250Z,44.92
2017-06-22T09:39:52.875Z,44.24
2017-06-22T09:41:03.139Z,44.15
2017-06-22T09:42:13.088Z,44.92
2017-06-22T09:43:23.338Z,44.24
2017-06-22T09:44:32.967Z,44.24
2017-06-22T09:45:42.918Z,44.24
2017-06-22T09:46:52.865Z,44.92
2017-06-22T09:48:02.531Z,44.82
2017-06-22T09:49:12.798Z,44.24
2017-06-22T09:50:23.055Z,44.63
2017-06-22T09:51:33.307Z,44.15
2017-06-22T09:52:43.256Z,44.43
2017-06-22T09:53:53.506Z,44.15
2017-06-22T09:55:03.454Z,44.15
2017-06-22T09:56:13.722Z,44.82
2017-06-22T09:57:23.673Z,44.24
2017-06-22T09:58:33.621Z,44.43
2017-06-22T09:59:43.565Z,44.82
2017-06-22T10:00:53.501Z,44.73
2017-06-22T10:02:03.762Z,44.82
2017-06-22T10:03:13.418Z,44.73
2017-06-22T10:04:23.361Z,44.15
2017-06-22T10:05:32.986Z,44.15
2017-06-22T10:06:42.938Z,44.34
2017-06-22T10:07:52.891Z,44.34
2017-06-22T10:09:02.831Z,44.92
2017-06-22T10:10:12.452Z,44.43
2017-06-22T10:11:22.402Z,44.15
2017-06-22T10:12:32.045Z,44.46
2017-06-22T10:13:41.993Z,44.15
2017-06-22T10:14:52.255Z,44.34
2017-06-22T10:16:02.520Z,44.15
2017-06-22T10:17:12.469Z,44.43
2017-06-22T10:18:22.108Z,44.82
2017-06-22T10:19:32.363Z,44.43
2017-06-22T10:20:42.310Z,44.73
2017-06-22T10:21:52.578Z,44.46
2017-06-22T10:23:02.839Z,44.34
2017-06-22T10:24:12.789Z,44.17
2017-06-22T10:25:23.044Z,44.46
2017-06-22T10:26:33.288Z,44.84
2017-06-22T10:27:43.234Z,44.43
2017-06-22T10:28:53.485Z,44.34
2017-06-22T10:30:03.432Z,44.75
2017-06-22T10:31:13.385Z,44.56
2017-06-22T10:32:23.651Z,44.15
2017-06-22T10:33:33.594Z,44.24
2017-06-22T10:34:43.854Z,44.43
2017-06-22T10:35:54.116Z,44.43
2017-06-22T10:37:04.380Z,44.26
2017-06-22T10:38:14.344Z,44.56
2017-06-22T10:39:24.610Z,44.53
2017-06-22T10:40:34.562Z,44.46
2017-06-22T10:41:44.502Z,44.36
2017-06-22T10:42:54.761Z,44.46
2017-06-22T10:44:04.393Z,44.07
2017-06-22T10:45:14.332Z,44.65
2017-06-22T10:46:24.281Z,44.36
2017-06-22T10:47:34.215Z,44.46
2017-06-22T10:48:44.154Z,44.56
2017-06-22T10:49:54.415Z,44.36
2017-06-22T10:51:04.365Z,44.56
2017-06-22T10:52:13.990Z,44.46
2017-06-22T10:53:24.260Z,44.94
2017-06-22T10:54:33.898Z,44.94
2017-06-22T10:55:44.150Z,44.65
2017-06-22T10:56:54.098Z,44.56
2017-06-22T10:58:04.044Z,44.56
2017-06-22T10:59:14.293Z,44.65
2017-06-22T11:00:24.258Z,44.84
2017-06-22T11:01:34.207Z,44.56
2017-06-22T11:02:43.838Z,44.65
2017-06-22T11:03:53.792Z,44.75
2017-06-22T11:05:03.739Z,44.84
2017-06-22T11:06:13.689Z,44.65
2017-06-22T11:07:23.319Z,44.82
2017-06-22T11:08:32.963Z,44.94
2017-06-22T11:09:42.913Z,44.56
2017-06-22T11:10:52.855Z,44.94
2017-06-22T11:12:03.119Z,44.65
2017-06-22T11:13:12.748Z,44.94
2017-06-22T11:14:22.696Z,44.84
2017-06-22T11:15:32.641Z,44.75
2017-06-22T11:16:42.896Z,44.94
2017-06-22T11:17:52.844Z,44.75
2017-06-22T11:19:02.473Z,44.84
2017-06-22T11:20:12.413Z,44.84
2017-06-22T11:21:22.049Z,44.56
2017-06-22T11:22:31.997Z,44.53
2017-06-22T11:23:41.940Z,44.73
2017-06-22T11:24:51.576Z,44.84
2017-06-22T11:26:01.834Z,44.75
2017-06-22T11:27:12.085Z,44.94
2017-06-22T11:28:21.731Z,44.75
2017-06-22T11:29:31.360Z,44.84
2017-06-22T11:30:41.607Z,44.46
2017-06-22T11:31:51.547Z,44.94
2017-06-22T11:33:01.829Z,44.84
2017-06-22T11:34:12.103Z,44.46
2017-06-22T11:35:22.050Z,44.75
2017-06-22T11:36:31.996Z,45.04
2017-06-22T11:37:41.622Z,44.75
2017-06-22T11:38:50.938Z,44.84
2017-06-22T11:40:01.205Z,44.84
2017-06-22T11:41:10.834Z,44.94
2017-06-22T11:42:21.095Z,44.94
2017-06-22T11:43:31.042Z,44.94
2017-06-22T11:44:41.290Z,45.14
2017-06-22T11:45:51.233Z,45.14
2017-06-22T11:47:01.495Z,44.94
2017-06-22T11:48:11.750Z,44.84
2017-06-22T11:49:22.015Z,45.14
2017-06-22T11:50:31.980Z,44.75
2017-06-22T11:51:41.612Z,44.94
2017-06-22T11:52:51.554Z,44.84
2017-06-22T11:54:01.185Z,45.04
2017-06-22T11:55:11.444Z,45.14
2017-06-22T11:56:21.065Z,44.94
2017-06-22T11:57:31.042Z,45.04
2017-06-22T11:58:41.304Z,44.94
2017-06-22T11:59:51.260Z,44.94
2017-06-22T12:01:01.513Z,45.04
2017-06-22T12:02:11.790Z,45.23
2017-06-22T12:03:21.738Z,44.84
2017-06-22T12:04:31.677Z,45.14
2017-06-22T12:05:41.627Z,44.75
2017-06-22T12:06:51.571Z,44.84
2017-06-22T12:08:01.197Z,45.33
2017-06-22T12:09:10.507Z,44.84
2017-06-22T12:10:20.450Z,44.84
2017-06-22T12:11:30.407Z,45.42
2017-06-22T12:12:40.670Z,45.14
2017-06-22T12:13:50.617Z,44.94
2017-06-22T12:15:00.244Z,44.84
2017-06-22T12:16:10.503Z,45.14
2017-06-22T12:17:20.133Z,45.14
2017-06-22T12:18:30.089Z,44.75
2017-06-22T12:19:40.031Z,44.84
2017-06-22T12:20:49.978Z,44.94
2017-06-22T12:22:00.240Z,44.75
2017-06-22T12:23:10.501Z,45.04
2017-06-22T12:24:20.126Z,44.75
2017-06-22T12:25:29.744Z,44.56
2017-06-22T12:26:39.688Z,45.23
2017-06-22T12:27:48.999Z,45.23
2017-06-22T12:28:59.245Z,45.04
2017-06-22T12:30:09.206Z,44.94
2017-06-22T12:31:18.831Z,45.04
2017-06-22T12:32:29.087Z,45.14
2017-06-22T12:33:38.398Z,45.23
2017-06-22T12:34:48.352Z,45.33
2017-06-22T12:35:58.295Z,45.33
2017-06-22T12:37:08.560Z,45.72
2017-06-22T12:38:18.501Z,47.65
2017-06-22T12:39:28.458Z,47.55
2017-06-22T12:40:38.397Z,46.68
2017-06-22T12:41:48.657Z,46.1
2017-06-22T12:42:58.599Z,46.3
2017-06-22T12:44:08.854Z,47.65
2017-06-22T12:45:19.100Z,47.45
2017-06-22T12:46:29.355Z,47.65
2017-06-22T12:47:38.991Z,47.16
2017-06-22T12:48:48.308Z,46.97
2017-06-22T12:49:58.562Z,47.16
2017-06-22T12:51:08.517Z,46.88
2017-06-22T12:52:18.769Z,47.36
2017-06-22T12:53:28.396Z,47.94
2017-06-22T12:54:38.342Z,48.39
2017-06-22T12:55:48.292Z,49.17
2017-06-22T12:56:58.228Z,49.65
2017-06-22T12:58:08.483Z,49.17
2017-06-22T12:59:18.485Z,47.94
2017-06-22T13:00:28.112Z,47.55
2017-06-22T13:01:38.374Z,47.26
2017-06-22T13:02:48.003Z,47.55
2017-06-22T13:03:58.268Z,47.16
2017-06-22T13:05:07.902Z,46.88
2017-06-22T13:06:17.534Z,46.78
2017-06-22T13:07:27.477Z,46.97
2017-06-22T13:08:37.414Z,46.78
2017-06-22T13:09:47.033Z,46.88
2017-06-22T13:10:56.668Z,47.07
2017-06-22T13:12:05.982Z,47.07
2017-06-22T13:13:16.242Z,46.78
2017-06-22T13:14:26.190Z,47.16
2017-06-22T13:15:36.138Z,46.88
2017-06-22T13:16:46.392Z,47.07
2017-06-22T13:17:56.384Z,46.88
2017-06-22T13:19:06.010Z,46.78
2017-06-22T13:20:15.003Z,46.78
2017-06-22T13:21:25.265Z,46.88
2017-06-22T13:22:35.207Z,46.97
2017-06-22T13:23:45.145Z,46.88
2017-06-22T13:24:54.778Z,46.97
2017-06-22T13:26:04.733Z,47.94
2017-06-22T13:27:14.982Z,48.32
2017-06-22T13:28:24.603Z,47.84
2017-06-22T13:29:34.547Z,47.84
2017-06-22T13:30:44.495Z,47.36
2017-06-22T13:31:54.433Z,47.45
2017-06-22T13:33:04.671Z,47.36
2017-06-22T13:34:14.294Z,48.03
2017-06-22T13:35:24.235Z,48.52
2017-06-22T13:36:33.861Z,47.65
2017-06-22T13:37:43.793Z,48.32
2017-06-22T13:38:53.740Z,48.03
2017-06-22T13:40:03.684Z,47.94
2017-06-22T13:41:13.933Z,47.84
2017-06-22T13:42:23.882Z,47.84
2017-06-22T13:43:34.152Z,47.74
2017-06-22T13:44:44.091Z,47.65
2017-06-22T13:45:54.038Z,47.84
2017-06-22T13:47:04.297Z,47.65
2017-06-22T13:48:13.919Z,48.13
2017-06-22T13:49:24.176Z,47.94
2017-06-22T13:50:33.787Z,47.84
2017-06-22T13:51:44.035Z,47.94
2017-06-22T13:52:53.970Z,47.94
2017-06-22T13:54:04.226Z,47.74
2017-06-22T13:55:13.853Z,47.55
2017-06-22T13:56:23.790Z,47.84
2017-06-22T13:57:33.422Z,47.55
2017-06-22T13:58:43.679Z,47.26
2017-06-22T13:59:53.610Z,47.65
2017-06-22T14:01:03.550Z,47.84
2017-06-22T14:02:13.489Z,47.45
2017-06-22T14:03:23.430Z,47.45
2017-06-22T14:04:33.686Z,47.74
2017-06-22T14:05:43.310Z,47.45
2017-06-22T14:06:53.550Z,47.74
2017-06-22T14:08:03.492Z,47.55
2017-06-22T14:09:13.424Z,47.74
2017-06-22T14:10:22.731Z,47.36
2017-06-22T14:11:32.661Z,47.45
2017-06-22T14:12:42.281Z,47.55
2017-06-22T14:13:52.205Z,47.45
2017-06-22T14:15:01.827Z,47.65
2017-06-22T14:16:11.470Z,47.45
2017-06-22T14:17:21.419Z,47.55
2017-06-22T14:18:30.728Z,47.36
2017-06-22T14:19:40.354Z,47.74
2017-06-22T14:20:50.623Z,47.55
2017-06-22T14:22:00.251Z,47.65
2017-06-22T14:23:10.509Z,47.45
2017-06-22T14:24:20.766Z,47.45
2017-06-22T14:25:31.013Z,47.45
2017-06-22T14:26:41.274Z,47.65
2017-06-22T14:27:51.216Z,47.16
2017-06-22T14:29:01.465Z,47.45
2017-06-22T14:30:11.408Z,47.84
2017-06-22T14:31:21.360Z,47.45
2017-06-22T14:32:31.299Z,47.65
2017-06-22T14:33:41.240Z,47.26
2017-06-22T14:34:51.470Z,47.36
2017-06-22T14:36:01.721Z,47.74
2017-06-22T14:37:11.357Z,47.65
2017-06-22T14:38:21.300Z,47.45
2017-06-22T14:39:31.555Z,47.55
2017-06-22T14:40:41.819Z,47.36
2017-06-22T14:41:51.452Z,47.36
2017-06-22T14:43:01.384Z,47.55
2017-06-22T14:44:11.016Z,47.26
2017-06-22T14:45:20.643Z,47.45
2017-06-22T14:46:30.919Z,47.55
2017-06-22T14:47:40.871Z,47.55
2017-06-22T14:48:50.813Z,47.65
2017-06-22T14:50:00.445Z,47.45
2017-06-22T14:51:10.075Z,47.65
2017-06-22T14:52:20.022Z,47.36
2017-06-22T14:53:29.985Z,47.36
2017-06-22T14:54:39.614Z,47.36
2017-06-22T14:55:48.928Z,47.36
2017-06-22T14:56:58.865Z,47.16
2017-06-22T14:58:08.496Z,47.55
2017-06-22T14:59:18.434Z,47.65
2017-06-22T15:00:28.062Z,47.55
2017-06-22T15:01:38.325Z,47.36